Time;durP1;ratioP1;P1;durP2;ratioP2;P2;SDS_P1;SDS_P2;PMS_P1;PMS_P2;Temp;Humidity;BMP_temperature;BMP_pressure;BME280_temperature;BME280_humidity;BME280_pressure;Samples;Min_cycle;Max_cycle;Signal;HPM_P1;HPM_P2
2024/03/25 00:01:16;;;;;;;;;;;;;;;10.61;83.35;99481.53;5053244;27;98170;-76
2024/03/25 00:03:41;;;;;;;;;;;;;;;11.02;81.86;99487.13;5054124;27;98629;-75
2024/03/25 00:06:08;;;;;;;;;;;;;;;10.97;81.49;99483.88;5054060;27;96795;-75
2024/03/25 00:08:33;;;;;;;;;;;;;;;11.19;80.41;99482.56;5054225;27;96925;-74
2024/03/25 00:10:59;;;;;;;;;;;;;;;11.33;80.18;99480.91;5052786;27;98775;-75
2024/03/25 00:13:25;;;;;;;;;;;;;;;10.76;81.44;99485.97;5053868;27;97490;-74
2024/03/25 00:15:53;;;;;;;;;;;;;;;10.85;81.91;99489.88;5053875;27;96704;-74
2024/03/25 00:18:18;;;;;;;;;;;;;;;10.89;81.08;99491.41;5053790;27;96920;-74
2024/03/25 00:20:44;;;;;;;;;;;;;;;10.73;81.92;99491.41;5052987;27;98878;-73
2024/03/25 00:23:11;;;;;;;;;;;;;;;10.77;81.26;99488.50;5053126;27;100497;-74
2024/03/25 00:25:37;;;;;;;;;;;;;;;10.64;81.76;99490.13;5053110;27;96988;-75
2024/03/25 00:28:04;;;;;;;;;;;;;;;10.77;81.81;99500.84;5054947;27;97128;-75
2024/03/25 00:30:30;;;;;;;;;;;;;;;10.82;81.52;99508.53;5052364;27;99501;-74
2024/03/25 00:32:57;;;;;;;;;;;;;;;10.72;81.54;99506.41;5053282;27;99238;-73
2024/03/25 00:35:23;;;;;;;;;;;;;;;10.76;81.86;99505.28;5052907;27;97937;-73
2024/03/25 00:37:49;;;;;;;;;;;;;;;10.88;81.24;99511.69;5054302;27;96738;-74
2024/03/25 00:40:15;;;;;;;;;;;;;;;10.70;81.23;99513.56;5013422;27;1109067;-75
2024/03/25 00:42:40;;;;;;;;;;;;;;;10.68;81.46;99514.59;5054292;27;98782;-75
2024/03/25 00:45:07;;;;;;;;;;;;;;;10.84;80.55;99517.22;5055050;27;97096;-75
2024/03/25 00:47:33;;;;;;;;;;;;;;;10.82;80.40;99517.34;5054164;27;96998;-75
2024/03/25 00:50:00;;;;;;;;;;;;;;;10.78;80.93;99516.63;5054020;27;99390;-75
2024/03/25 00:52:26;;;;;;;;;;;;;;;10.96;80.21;99512.09;5053979;27;98687;-74
2024/03/25 00:54:52;;;;;;;;;;;;;;;10.83;80.85;99520.81;5053685;27;96794;-74
2024/03/25 00:57:18;;;;;;;;;;;;;;;10.53;81.91;99520.72;5053965;27;97416;-75
2024/03/25 00:59:44;;;;;;;;;;;;;;;10.80;80.82;99519.19;5053231;27;97612;-75
2024/03/25 01:02:10;;;;;;;;;;;;;;;10.68;81.40;99514.59;5053913;27;97663;-74
2024/03/25 01:04:36;;;;;;;;;;;;;;;10.41;82.25;99519.59;5053850;27;96718;-74
2024/03/25 01:07:03;;;;;;;;;;;;;;;10.43;82.49;99519.53;5054553;27;96781;-75
2024/03/25 01:09:29;;;;;;;;;;;;;;;10.24;83.18;99531.03;5052326;27;98570;-75
2024/03/25 01:11:55;;;;;;;;;;;;;;;9.84;84.81;99534.06;5053623;27;97842;-75
2024/03/25 01:14:21;;;;;;;;;;;;;;;9.71;85.74;99531.19;5053889;27;96702;-75
2024/03/25 01:16:47;;;;;;;;;;;;;;;10.23;84.39;99518.81;5054564;27;96711;-74
2024/03/25 01:19:13;;;;;;;;;;;;;;;10.33;83.47;99527.06;5052927;27;98888;-74
2024/03/25 01:21:38;;;;;;;;;;;;;;;10.47;83.20;99531.63;5052920;27;99556;-74
2024/03/25 01:24:06;;;;;;;;;;;;;;;10.58;82.55;99530.09;5053205;27;97571;-74
2024/03/25 01:26:31;;;;;;;;;;;;;;;10.85;81.38;99540.94;5053864;27;96863;-73
2024/03/25 01:28:57;;;;;;;;;;;;;;;10.26;82.65;99541.53;5054657;27;98946;-75
2024/03/25 01:31:23;;;;;;;;;;;;;;;9.77;86.07;99538.78;5052010;27;98951;-75
2024/03/25 01:33:49;;;;;;;;;;;;;;;10.06;85.04;99539.91;5053509;27;96767;-75
2024/03/25 01:36:17;;;;;;;;;;;;;;;10.11;85.80;99544.97;5053468;27;96748;-74
2024/03/25 01:38:43;;;;;;;;;;;;;;;10.27;84.64;99543.25;5046919;27;99664;-74
2024/03/25 01:41:11;;;;;;;;;;;;;;;9.88;86.63;99541.72;5053256;27;98868;-75
2024/03/25 01:43:37;;;;;;;;;;;;;;;10.12;86.34;99546.66;5053265;27;96789;-74
2024/03/25 01:46:04;;;;;;;;;;;;;;;10.13;85.75;99548.34;5053555;27;96841;-75
2024/03/25 01:48:30;;;;;;;;;;;;;;;9.63;86.97;99557.09;5052316;27;98876;-75
2024/03/25 01:50:56;;;;;;;;;;;;;;;9.48;87.69;99557.88;5053087;27;98366;-74
2024/03/25 01:53:23;;;;;;;;;;;;;;;9.03;88.98;99560.97;5047282;27;98031;-74
2024/03/25 01:55:49;;;;;;;;;;;;;;;8.98;89.53;99571.72;5053709;27;96776;-74
2024/03/25 01:58:17;;;;;;;;;;;;;;;9.22;88.20;99569.69;5053208;27;99267;-74
2024/03/25 02:00:42;;;;;;;;;;;;;;;9.35;85.41;99569.94;5047445;27;98858;-73
2024/03/25 02:03:09;;;;;;;;;;;;;;;9.30;85.76;99566.69;5053259;27;96727;-74
2024/03/25 02:05:34;;;;;;;;;;;;;;;9.41;85.11;99575.75;5053633;27;96817;-75
2024/03/25 02:08:02;;;;;;;;;;;;;;;9.49;84.70;99567.47;5052726;27;98818;-75
2024/03/25 02:10:27;;;;;;;;;;;;;;;9.31;84.58;99568.41;5051902;27;99202;-75
2024/03/25 02:12:54;;;;;;;;;;;;;;;9.27;84.53;99578.22;5052280;27;96969;-74
2024/03/25 02:15:20;;;;;;;;;;;;;;;9.39;85.38;99577.63;5052979;27;96754;-74
2024/03/25 02:17:47;;;;;;;;;;;;;;;9.32;86.66;99578.00;5050653;27;97835;-75
2024/03/25 02:20:15;;;;;;;;;;;;;;;9.47;86.49;99577.25;5048025;27;99630;-75
2024/03/25 02:22:42;;;;;;;;;;;;;;;9.14;87.04;99583.22;5052182;27;96720;-74
2024/03/25 02:25:08;;;;;;;;;;;;;;;8.98;88.84;99587.53;5052816;27;97084;-74
2024/03/25 02:27:36;;;;;;;;;;;;;;;8.99;88.80;99583.13;5053745;27;100289;-75
2024/03/25 02:30:02;;;;;;;;;;;;;;;8.63;91.58;99580.41;5052650;27;98803;-74
2024/03/25 02:32:29;;;;;;;;;;;;;;;8.42;94.00;99581.38;5052977;27;97094;-73
2024/03/25 02:34:55;;;;;;;;;;;;;;;8.31;94.96;99590.63;5052762;27;96731;-74
2024/03/25 02:37:21;;;;;;;;;;;;;;;8.78;92.79;99585.84;5052059;27;98859;-75
2024/03/25 02:39:46;;;;;;;;;;;;;;;8.66;93.34;99591.66;5051397;27;98880;-74
2024/03/25 02:42:12;;;;;;;;;;;;;;;8.88;92.23;99601.19;5052137;27;97181;-74
2024/03/25 02:44:43;;;;;;;;;;;;;;;9.47;90.27;99611.53;5052863;27;96826;-75
2024/03/25 02:47:09;;;;;;;;;;;;;;;9.99;87.64;99610.63;5051916;27;97209;-74
2024/03/25 02:49:35;;;;;;;;;;;;;;;10.35;82.36;99617.63;5051557;27;99174;-74
2024/03/25 02:52:01;;;;;;;;;;;;;;;10.53;79.59;99621.09;5052211;27;96627;-74
2024/03/25 02:54:27;;;;;;;;;;;;;;;10.67;78.17;99614.13;5052856;27;96784;-74
2024/03/25 02:56:53;;;;;;;;;;;;;;;10.82;77.20;99616.88;5052170;27;98882;-73
2024/03/25 02:59:18;;;;;;;;;;;;;;;10.86;77.23;99615.78;5051763;27;98809;-74
2024/03/25 03:01:46;;;;;;;;;;;;;;;11.03;77.02;99626.28;5051210;27;97039;-74
2024/03/25 03:04:11;;;;;;;;;;;;;;;11.21;76.91;99630.56;5051999;27;96844;-75
2024/03/25 03:06:37;;;;;;;;;;;;;;;11.13;78.07;99630.13;5051694;27;99474;-74
2024/03/25 03:09:03;;;;;;;;;;;;;;;10.34;80.84;99634.41;5051823;27;98809;-74
2024/03/25 03:11:29;;;;;;;;;;;;;;;10.37;82.54;99643.00;5052271;27;98968;-73
2024/03/25 03:13:54;;;;;;;;;;;;;;;10.13;82.80;99648.66;5052685;27;96892;-74
2024/03/25 03:16:20;;;;;;;;;;;;;;;9.80;84.74;99640.66;5051885;27;98124;-74
2024/03/25 03:18:47;;;;;;;;;;;;;;;9.44;85.95;99646.81;5052154;27;99249;-74
2024/03/25 03:21:13;;;;;;;;;;;;;;;9.70;86.55;99649.97;5051343;27;97561;-74
2024/03/25 03:23:38;;;;;;;;;;;;;;;9.67;85.67;99650.97;5051563;27;96779;-74
2024/03/25 03:26:05;;;;;;;;;;;;;;;9.52;85.80;99652.56;5051115;27;100120;-75
2024/03/25 03:28:30;;;;;;;;;;;;;;;8.93;88.77;99658.00;5052170;27;97503;-74
2024/03/25 03:30:57;;;;;;;;;;;;;;;9.22;88.20;99664.56;5051244;27;97120;-75
2024/03/25 03:33:22;;;;;;;;;;;;;;;9.35;88.28;99670.13;5054861;27;96872;-74
2024/03/25 03:35:50;;;;;;;;;;;;;;;8.68;90.52;99667.94;5054640;27;98443;-74
2024/03/25 03:38:15;;;;;;;;;;;;;;;9.02;89.18;99664.66;5055141;27;99069;-74
2024/03/25 03:40:41;;;;;;;;;;;;;;;9.30;88.63;99672.13;5054611;27;96838;-74
2024/03/25 03:43:07;;;;;;;;;;;;;;;9.22;88.10;99688.31;5056010;27;96977;-73
2024/03/25 03:45:33;;;;;;;;;;;;;;;9.32;86.80;99680.81;5054894;27;99065;-74
2024/03/25 03:47:59;;;;;;;;;;;;;;;9.43;88.08;99687.31;5054710;27;99176;-73
2024/03/25 03:50:25;;;;;;;;;;;;;;;9.62;86.74;99691.69;5054425;27;96712;-74
2024/03/25 03:52:51;;;;;;;;;;;;;;;9.80;85.04;99686.38;5048250;27;97922;-74
2024/03/25 03:55:19;;;;;;;;;;;;;;;9.33;87.09;99698.34;5054937;27;99911;-74
2024/03/25 03:57:44;;;;;;;;;;;;;;;9.14;89.10;99696.56;5054919;27;97547;-75
2024/03/25 04:00:12;;;;;;;;;;;;;;;8.90;91.05;99699.47;5054069;27;96796;-74
2024/03/25 04:02:37;;;;;;;;;;;;;;;9.30;90.06;99698.50;5054864;27;97184;-74
2024/03/25 04:05:04;;;;;;;;;;;;;;;9.18;88.88;99699.91;5055172;27;97739;-74
2024/03/25 04:07:30;;;;;;;;;;;;;;;9.42;88.59;99709.31;5055030;27;98892;-74
2024/03/25 04:09:59;;;;;;;;;;;;;;;9.30;88.06;99701.13;5054670;27;96733;-74
2024/03/25 04:12:24;;;;;;;;;;;;;;;8.89;89.52;99713.56;5054603;27;96981;-73
2024/03/25 04:14:54;;;;;;;;;;;;;;;9.39;88.07;99716.50;5053926;27;98902;-73
2024/03/25 04:17:20;;;;;;;;;;;;;;;9.48;86.80;99718.72;5054429;27;99067;-74
2024/03/25 04:19:46;;;;;;;;;;;;;;;9.48;86.80;99721.34;5054026;27;96809;-74
2024/03/25 04:22:12;;;;;;;;;;;;;;;9.05;88.26;99717.22;5054310;27;96743;-74
2024/03/25 04:24:38;;;;;;;;;;;;;;;9.05;90.39;99726.00;5054575;27;98815;-74
2024/03/25 04:27:05;;;;;;;;;;;;;;;9.31;89.89;99726.56;5054445;27;99825;-75
2024/03/25 04:29:31;;;;;;;;;;;;;;;9.44;88.29;99732.97;5053809;27;97140;-75
2024/03/25 04:31:56;;;;;;;;;;;;;;;9.33;88.43;99735.25;5054727;27;96744;-74
2024/03/25 04:34:23;;;;;;;;;;;;;;;9.72;87.29;99738.63;5054429;27;98753;-74
2024/03/25 04:36:48;;;;;;;;;;;;;;;9.76;86.39;99745.50;5054289;27;101198;-73
